Time;durP1;ratioP1;P1;durP2;ratioP2;P2;SDS_P1;SDS_P2;PMS_P1;PMS_P2;Temp;Humidity;BMP_temperature;BMP_pressure;BME280_temperature;BME280_humidity;BME280_pressure;Samples;Min_cycle;Max_cycle;Signal;HPM_P1;HPM_P2
2022/03/17 00:01:32;;;;;;;;;9.25;7.00;;;;;13.58;54.11;101749.47;5059585;28;45197;-61
2022/03/17 00:03:58;;;;;;;;;7.50;7.25;;;;;13.57;54.58;101750.38;5059489;28;45227;-61
2022/03/17 00:06:24;;;;;;;;;4.00;4.00;;;;;13.54;54.47;101743.34;5058016;28;45316;-61
2022/03/17 00:08:49;;;;;;;;;6.50;6.50;;;;;13.56;54.51;101746.88;5061391;28;45291;-61
2022/03/17 00:11:14;;;;;;;;;6.00;6.00;;;;;13.56;54.57;101746.88;5062772;28;45240;-61
2022/03/17 00:13:41;;;;;;;;;5.00;5.00;;;;;13.56;54.49;101752.16;5062983;28;46255;-61
2022/03/17 00:16:09;;;;;;;;;5.50;5.50;;;;;13.57;54.04;101753.00;5062952;28;45303;-61
2022/03/17 00:18:35;;;;;;;;;7.50;7.50;;;;;13.56;54.19;101754.78;5062994;28;45359;-61
2022/03/17 00:21:00;;;;;;;;;8.00;6.75;;;;;13.55;54.08;101768.88;5062540;28;45386;-61
2022/03/17 00:23:25;;;;;;;;;6.50;6.50;;;;;13.51;54.46;101764.53;5062715;28;45334;-61
2022/03/17 00:25:51;;;;;;;;;6.50;5.00;;;;;13.46;54.16;101761.06;5062673;28;45385;-60
2022/03/17 00:28:16;;;;;;;;;6.75;6.75;;;;;13.47;54.38;101778.63;5062952;28;45257;-61
2022/03/17 00:30:41;;;;;;;;;7.75;6.00;;;;;13.46;54.05;101771.63;5062722;28;45422;-61
2022/03/17 00:33:07;;;;;;;;;10.50;10.50;;;;;13.44;54.50;101787.44;5062502;28;45355;-61
2022/03/17 00:35:35;;;;;;;;;8.75;8.75;;;;;13.42;54.54;101786.63;5062796;28;45327;-62
2022/03/17 00:38:01;;;;;;;;;10.75;9.00;;;;;13.41;54.12;101787.50;5063981;28;45257;-62
2022/03/17 00:40:27;;;;;;;;;10.25;9.00;;;;;13.37;54.23;101788.44;5068183;28;45554;-62
2022/03/17 00:42:53;;;;;;;;;9.75;9.75;;;;;13.39;54.43;101791.91;5061209;28;47086;-61
2022/03/17 00:45:19;;;;;;;;;11.25;11.25;;;;;13.37;54.09;101800.69;5062526;28;45450;-61
2022/03/17 00:47:44;;;;;;;;;14.50;13.00;;;;;13.35;53.94;101811.28;5061161;28;45379;-61
2022/03/17 00:50:10;;;;;;;;;13.75;12.50;;;;;13.32;54.10;101816.59;5062311;28;45479;-62
2022/03/17 00:52:36;;;;;;;;;14.25;13.25;;;;;13.29;54.26;101820.09;5060893;28;48229;-70
2022/03/17 00:55:05;;;;;;;;;15.00;14.00;;;;;13.25;54.19;101820.16;5062179;28;45411;-61
2022/03/17 00:57:30;;;;;;;;;16.75;15.00;;;;;13.24;53.83;101819.28;5062362;28;45293;-61
2022/03/17 00:59:56;;;;;;;;;17.25;14.75;;;;;13.21;54.00;101823.72;5062123;28;45232;-61
2022/03/17 01:02:21;;;;;;;;;17.50;16.50;;;;;13.21;54.38;101829.88;5062237;28;45224;-61
2022/03/17 01:04:47;;;;;;;;;17.00;16.25;;;;;13.21;54.52;101842.22;5062198;28;45227;-61
2022/03/17 01:07:12;;;;;;;;;20.00;19.75;;;;;13.16;54.33;101827.25;5061884;28;45330;-62
2022/03/17 01:09:38;;;;;;;;;20.00;19.00;;;;;13.16;54.15;101837.81;5061743;28;45537;-61
2022/03/17 01:12:03;;;;;;;;;19.75;19.00;;;;;13.14;54.13;101830.81;5062028;28;46017;-61
2022/03/17 01:14:29;;;;;;;;;18.50;18.50;;;;;13.13;54.41;101831.69;5061992;28;45315;-61
2022/03/17 01:16:55;;;;;;;;;21.25;21.25;;;;;13.12;54.40;101838.72;5062036;28;45312;-61
2022/03/17 01:19:21;;;;;;;;;19.50;18.75;;;;;13.07;54.44;101848.44;5061250;28;45594;-61
2022/03/17 01:21:48;;;;;;;;;21.50;20.50;;;;;13.09;54.14;101848.44;5059936;28;47439;-61
2022/03/17 01:24:13;;;;;;;;;22.25;21.00;;;;;13.08;54.38;101846.69;5061784;28;45418;-60
2022/03/17 01:26:39;;;;;;;;;24.00;23.25;;;;;13.07;54.76;101863.38;5061650;28;45367;-61
2022/03/17 01:29:04;;;;;;;;;23.00;23.00;;;;;13.06;54.49;101857.25;5061749;28;45162;-61
2022/03/17 01:31:30;;;;;;;;;22.75;22.75;;;;;13.03;54.58;101869.59;5061625;28;45212;-60
2022/03/17 01:33:56;;;;;;;;;17.75;16.00;;;;;13.01;54.39;101870.47;5060429;28;45447;-61
2022/03/17 01:36:21;;;;;;;;;18.75;18.25;;;;;13.00;54.36;101875.75;5061377;28;45352;-61
2022/03/17 01:38:46;;;;;;;;;23.75;22.00;;;;;12.93;54.68;101871.41;5069675;28;45208;-61
2022/03/17 01:41:12;;;;;;;;;19.50;18.50;;;;;12.97;54.59;101884.56;5062235;28;45324;-61
2022/03/17 01:43:37;;;;;;;;;22.00;21.00;;;;;12.96;54.47;101887.22;5061572;28;45220;-61
2022/03/17 01:46:02;;;;;;;;;22.75;22.00;;;;;12.93;54.45;101881.94;5061710;28;45370;-61
2022/03/17 01:48:28;;;;;;;;;25.25;23.75;;;;;12.90;54.63;101877.56;5061451;28;45386;-61
2022/03/17 01:50:53;;;;;;;;;25.00;23.25;;;;;12.89;54.58;101883.72;5061137;28;45340;-61
2022/03/17 01:53:23;;;;;;;;;25.50;20.25;;;;;12.89;54.55;101882.84;5061274;28;45358;-61
2022/03/17 01:55:49;;;;;;;;;23.00;22.25;;;;;12.87;54.79;101885.50;5061323;28;45218;-61
2022/03/17 01:58:16;;;;;;;;;20.25;18.25;;;;;12.86;54.79;101882.88;5061239;28;45435;-60
2022/03/17 02:00:42;;;;;;;;;25.75;22.50;;;;;12.87;54.49;101892.53;5060967;28;45218;-61
2022/03/17 02:03:08;;;;;;;;;24.50;24.00;;;;;12.86;54.63;101889.03;5061406;28;45580;-61
2022/03/17 02:05:34;;;;;;;;;23.00;22.00;;;;;12.84;54.52;101889.03;5061089;28;45522;-61
2022/03/17 02:08:01;;;;;;;;;23.50;20.50;;;;;12.86;54.47;101893.44;5061043;28;45380;-61
2022/03/17 02:10:26;;;;;;;;;24.25;24.25;;;;;12.87;54.82;101896.06;5060543;28;46192;-61
2022/03/17 02:13:10;;;;;;;;;24.75;23.00;;;;;12.83;54.75;101886.44;5059794;28;45311;-61
2022/03/17 02:15:35;;;;;;;;;21.25;18.75;;;;;12.82;54.64;101896.09;5061236;28;45496;-61
2022/03/17 02:18:03;;;;;;;;;22.25;20.75;;;;;12.84;54.56;101910.16;5060738;28;45384;-61
2022/03/17 02:20:28;;;;;;;;;26.25;22.75;;;;;12.83;54.79;101915.44;5060970;28;45305;-61
2022/03/17 02:25:33;;;;;;;;;26.50;22.50;;;;;12.81;54.58;101922.47;5060511;28;45231;-61
2022/03/17 02:25:50;;;;;;;;;23.75;22.00;;;;;12.80;54.75;101929.53;5060757;28;45466;-61
2022/03/17 02:28:16;;;;;;;;;23.50;21.75;;;;;12.79;54.67;101935.69;5060793;28;45182;-61
2022/03/17 02:30:42;;;;;;;;;23.00;22.25;;;;;12.80;54.65;101939.19;5059315;28;46197;-60
2022/03/17 02:33:10;;;;;;;;;20.50;20.50;;;;;12.78;54.65;101941.84;5059389;28;45614;-61
2022/03/17 02:35:37;;;;;;;;;20.25;18.75;;;;;12.78;54.78;101941.84;5060957;28;45403;-61
2022/03/17 02:38:04;;;;;;;;;22.75;20.50;;;;;12.78;54.92;101941.84;5062153;28;45576;-61
2022/03/17 02:40:34;;;;;;;;;22.25;21.25;;;;;12.78;54.87;101940.94;5067208;28;46125;-61
2022/03/17 02:43:00;;;;;;;;;22.50;21.25;;;;;12.78;54.60;101933.91;5047536;28;45498;-61
2022/03/17 02:45:26;;;;;;;;;22.75;22.00;;;;;12.79;54.73;101924.22;5060639;28;45258;-59
2022/03/17 02:47:52;;;;;;;;;25.25;24.25;;;;;12.79;54.84;101921.59;5060668;28;45361;-60
2022/03/17 02:50:18;;;;;;;;;21.25;19.75;;;;;12.78;54.45;101931.28;5060414;28;46201;-58
2022/03/17 02:52:44;;;;;;;;;21.75;21.00;;;;;12.76;54.95;101967.31;5060252;28;45272;-60
2022/03/17 02:55:14;;;;;;;;;21.75;19.75;;;;;12.77;54.84;101963.81;5060223;28;45210;-60
2022/03/17 02:57:41;;;;;;;;;25.50;24.25;;;;;12.75;54.71;101964.69;5060574;28;45357;-60
2022/03/17 03:00:09;;;;;;;;;23.25;20.00;;;;;12.75;54.66;101955.00;5060005;28;45549;-60
2022/03/17 03:02:35;;;;;;;;;27.00;22.50;;;;;12.75;54.90;101962.94;5060242;28;45449;-60
2022/03/17 03:05:01;;;;;;;;;20.75;18.75;;;;;12.65;54.65;101948.91;5060241;28;45291;-60
2022/03/17 03:07:27;;;;;;;;;20.00;19.50;;;;;12.72;54.60;101962.09;5058704;28;45371;-60
2022/03/17 03:09:52;;;;;;;;;19.50;17.00;;;;;12.72;54.63;101951.53;5058294;28;45236;-59
2022/03/17 03:12:17;;;;;;;;;23.75;18.75;;;;;12.72;54.48;101964.72;5060268;28;45402;-60
2022/03/17 03:14:44;;;;;;;;;18.00;18.00;;;;;12.69;54.73;101968.22;5060322;28;45314;-60
2022/03/17 03:17:09;;;;;;;;;20.50;19.25;;;;;12.69;54.90;101976.13;5058804;28;45391;-60
2022/03/17 03:19:35;;;;;;;;;20.00;18.75;;;;;12.68;54.75;101972.63;5059904;28;46084;-59
2022/03/17 03:22:01;;;;;;;;;14.00;14.00;;;;;12.66;54.48;101966.47;5059912;28;45412;-60
2022/03/17 03:24:26;;;;;;;;;21.50;18.00;;;;;12.67;54.49;101970.88;5058733;28;45349;-60
2022/03/17 03:26:52;;;;;;;;;22.75;21.25;;;;;12.65;54.62;101971.75;5059921;28;45456;-60
2022/03/17 03:31:46;;;;;;;;;22.75;21.00;;;;;12.67;54.41;101978.78;5059990;28;45236;-60
2022/03/17 03:34:11;;;;;;;;;20.50;19.50;;;;;12.67;54.76;101985.84;5059853;28;45330;-60
2022/03/17 03:39:20;;;;;;;;;21.00;20.50;;;;;12.64;54.49;101992.00;5068413;28;45220;-60
2022/03/17 03:41:46;;;;;;;;;22.75;20.75;;;;;12.58;54.46;101984.09;5059670;28;45308;-60
2022/03/17 03:44:14;;;;;;;;;17.75;17.75;;;;;12.64;54.39;102001.66;5061225;28;45231;-60
2022/03/17 03:46:42;;;;;;;;;18.50;17.00;;;;;12.65;54.21;102004.31;5063451;28;46475;-60
2022/03/17 03:49:07;;;;;;;;;6.75;6.25;;;;;12.55;54.42;102009.59;5063152;28;45407;-60
2022/03/17 03:51:33;;;;;;;;;20.25;17.00;;;;;12.61;54.47;102025.41;5062807;28;45236;-60
2022/03/17 03:54:17;;;;;;;;;20.00;17.50;;;;;12.58;54.29;102028.03;5061923;28;45337;-59
2022/03/17 03:56:47;;;;;;;;;17.50;17.50;;;;;12.56;54.23;102040.34;5062267;28;45228;-60
2022/03/17 03:59:24;;;;;;;;;17.25;16.50;;;;;12.52;54.24;102042.97;5063094;28;45576;-60
2022/03/17 04:01:59;;;;;;;;;19.00;18.75;;;;;12.51;54.47;102043.00;5063074;28;45519;-60
2022/03/17 04:04:25;;;;;;;;;20.75;19.00;;;;;12.48;54.41;102056.19;5063350;28;45358;-60
2022/03/17 04:06:53;;;;;;;;;15.00;15.00;;;;;12.43;54.35;102063.22;5061431;28;45453;-60
2022/03/17 04:09:21;;;;;;;;;23.25;18.75;;;;;12.41;54.43;102067.63;5062568;28;45395;-60
2022/03/17 04:11:47;;;;;;;;;19.75;17.00;;;;;12.39;54.25;102072.91;5062854;28;45334;-60
2022/03/17 04:14:13;;;;;;;;;14.75;13.75;;;;;12.37;54.45;102073.78;5063163;28;45197;-60
2022/03/17 04:16:40;;;;;;;;;20.50;17.00;;;;;12.37;54.32;102071.13;5062998;28;45332;-60
2022/03/17 04:19:05;;;;;;;;;19.00;19.00;;;;;12.34;54.24;102080.78;5062974;28;45438;-60
2022/03/17 04:21:32;;;;;;;;;17.75;15.75;;;;;12.31;54.19;102087.81;5062348;28;45373;-59
2022/03/17 04:23:59;;;;;;;;;17.25;16.00;;;;;12.30;54.32;102089.59;5062999;28;45286;-60
2022/03/17 04:26:25;;;;;;;;;16.25;15.25;;;;;12.31;54.25;102090.47;5061290;28;45494;-60
2022/03/17 04:28:50;;;;;;;;;13.25;13.00;;;;;12.30;54.28;102097.50;5062586;28;45328;-60
2022/03/17 04:31:16;;;;;;;;;16.50;16.00;;;;;12.26;54.24;102100.13;5061444;28;45191;-60
2022/03/17 04:33:42;;;;;;;;;19.00;17.00;;;;;12.27;54.41;102108.03;5062901;28;45518;-60
2022/03/17 04:36:10;;;;;;;;;19.25;17.75;;;;;12.27;54.43;102112.44;5062373;28;45221;-60
2022/03/17 04:38:36;;;;;;;;;15.00;14.25;;;;;12.25;54.46;102112.44;5069026;28;45260;-60
2022/03/17 04:41:02;;;;;;;;;15.00;15.00;;;;;12.25;54.30;102116.81;5064700;28;45342;-60
2022/03/17 04:43:27;;;;;;;;;16.25;16.25;;;;;12.23;54.25;102122.09;5062630;28;45300;-63
2022/03/17 04:45:53;;;;;;;;;12.50;12.50;;;;;12.21;54.15;102129.09;5062515;28;45169;-63
2022/03/17 04:48:18;;;;;;;;;11.00;10.50;;;;;12.17;54.16;102128.22;5062397;28;45229;-60
2022/03/17 04:50:43;;;;;;;;;15.50;11.50;;;;;12.17;54.01;102138.75;5062322;28;45263;-61
2022/03/17 04:53:27;;;;;;;;;9.00;8.25;;;;;12.17;54.02;102143.16;5061133;28;45447;-60
2022/03/17 04:55:57;;;;;;;;;8.00;7.75;;;;;12.14;54.05;102146.66;5061369;28;45821;-60
2022/03/17 04:58:23;;;;;;;;;10.75;8.75;;;;;12.10;53.92;102154.56;5062151;28;45607;-60
2022/03/17 05:00:48;;;;;;;;;8.25;8.25;;;;;12.09;53.84;102163.34;5062235;28;45356;-60
2022/03/17 05:03:14;;;;;;;;;7.00;6.00;;;;;12.06;54.03;102163.34;5062561;28;45816;-60
2022/03/17 05:05:39;;;;;;;;;8.50;7.25;;;;;12.01;53.77;102166.84;5062240;28;45419;-60
2022/03/17 05:08:06;;;;;;;;;10.00;9.00;;;;;12.01;53.73;102177.41;5061785;28;45857;-60
2022/03/17 05:10:35;;;;;;;;;9.00;8.25;;;;;11.99;53.72;102173.88;5062092;28;45458;-60
2022/03/17 05:13:05;;;;;;;;;8.75;8.75;;;;;11.97;53.65;102178.25;5062112;28;45323;-60
2022/03/17 05:15:30;;;;;;;;;9.25;8.00;;;;;11.94;54.35;102183.47;5062138;28;45443;-60
2022/03/17 05:17:56;;;;;;;;;7.50;7.25;;;;;11.92;53.63;102185.22;5060493;28;45886;-60
2022/03/17 05:20:21;;;;;;;;;7.50;7.50;;;;;11.90;53.68;102184.34;5061982;28;45346;-60
2022/03/17 05:22:46;;;;;;;;;8.75;6.00;;;;;11.89;53.61;102181.72;5061780;28;45374;-60
2022/03/17 05:25:12;;;;;;;;;7.00;7.00;;;;;11.88;53.44;102183.44;5061909;28;45249;-60
2022/03/17 05:27:41;;;;;;;;;7.00;5.75;;;;;11.87;53.91;102194.84;5061872;28;45385;-60
2022/03/17 05:30:10;;;;;;;;;9.00;9.00;;;;;11.83;53.32;102196.59;5061839;28;45271;-60
2022/03/17 05:32:35;;;;;;;;;10.25;8.50;;;;;11.85;53.76;102196.63;5060437;28;45496;-60
2022/03/17 05:35:01;;;;;;;;;12.00;10.00;;;;;11.83;53.44;102203.63;5060394;28;45380;-60
2022/03/17 05:37:26;;;;;;;;;7.50;6.50;;;;;11.81;53.56;102210.63;5061271;28;45296;-60
2022/03/17 05:39:51;;;;;;;;;11.75;9.00;;;;;11.80;53.45;102212.41;5070517;28;45291;-60
2022/03/17 05:42:17;;;;;;;;;8.00;8.00;;;;;11.81;53.41;102213.28;5060507;28;45516;-60
2022/03/17 05:44:42;;;;;;;;;8.25;8.25;;;;;11.79;53.47;102218.53;5061677;28;45504;-60
2022/03/17 05:47:08;;;;;;;;;10.75;8.50;;;;;11.78;53.43;102218.53;5061389;28;45450;-60
2022/03/17 05:49:33;;;;;;;;;9.25;9.25;;;;;11.78;53.41;102224.69;5060099;28;45347;-60
2022/03/17 05:51:59;;;;;;;;;11.75;9.50;;;;;11.78;53.35;102227.31;5061397;28;45259;-60
2022/03/17 05:54:25;;;;;;;;;10.00;10.00;;;;;11.78;53.58;102236.97;5060208;28;45509;-60
2022/03/17 05:56:50;;;;;;;;;11.50;8.75;;;;;11.74;53.34;102238.72;5061317;28;45214;-60
2022/03/17 05:59:15;;;;;;;;;11.50;9.75;;;;;11.75;53.47;102242.22;5060106;28;45247;-60
2022/03/17 06:01:41;;;;;;;;;10.00;9.75;;;;;11.75;53.17;102252.75;5061257;28;45217;-60
2022/03/17 06:04:06;;;;;;;;;10.00;10.00;;;;;11.74;53.34;102248.38;5060001;28;45244;-61
2022/03/17 06:06:31;;;;;;;;;10.25;9.75;;;;;11.71;53.43;102252.75;5060461;28;45248;-60
2022/03/17 06:08:57;;;;;;;;;11.25;11.25;;;;;11.74;53.49;102264.19;5061249;28;45192;-60
2022/03/17 06:11:22;;;;;;;;;12.00;11.00;;;;;11.70;53.25;102258.00;5060979;28;45256;-60
2022/03/17 06:13:48;;;;;;;;;10.25;10.25;;;;;11.68;53.58;102252.75;5061301;28;45468;-60
2022/03/17 06:16:13;;;;;;;;;10.25;9.25;;;;;11.71;53.29;102265.91;5060845;28;45974;-60
2022/03/17 06:18:40;;;;;;;;;11.00;11.00;;;;;11.70;53.36;102269.41;5061323;28;45393;-60
2022/03/17 06:21:06;;;;;;;;;10.25;10.25;;;;;11.69;53.47;102278.19;5060732;28;45378;-60
2022/03/17 06:23:32;;;;;;;;;9.00;9.00;;;;;11.67;53.35;102285.22;5059829;28;45347;-60
2022/03/17 06:25:57;;;;;;;;;10.75;9.75;;;;;11.67;53.47;102298.38;5060419;28;46186;-60
2022/03/17 06:28:23;;;;;;;;;10.00;10.00;;;;;11.64;53.40;102295.72;5060968;28;45344;-61
2022/03/17 06:30:48;;;;;;;;;12.00;10.25;;;;;11.67;53.45;102295.75;5059744;28;45347;-59
2022/03/17 06:33:14;;;;;;;;;10.75;7.75;;;;;11.67;53.42;102305.38;5060880;28;45166;-60
2022/03/17 06:35:40;;;;;;;;;12.50;10.25;;;;;11.66;53.43;102307.16;5060356;28;45859;-60
2022/03/17 06:38:07;;;;;;;;;11.25;11.25;;;;;11.67;53.47;102321.19;5062925;28;45252;-60
2022/03/17 06:40:33;;;;;;;;;11.00;9.50;;;;;11.67;53.41;102315.91;5065857;28;45598;-59
2022/03/17 06:42:59;;;;;;;;;11.25;10.25;;;;;11.67;53.59;102324.72;5060801;28;45472;-60
2022/03/17 06:45:25;;;;;;;;;10.00;8.00;;;;;11.67;53.45;102321.19;5060433;28;46946;-60
2022/03/17 06:47:51;;;;;;;;;8.50;8.50;;;;;11.68;53.33;102330.84;5059453;28;45353;-61
2022/03/17 06:50:20;;;;;;;;;11.50;11.50;;;;;11.68;53.31;102337.00;5060440;28;45335;-61
2022/03/17 06:52:45;;;;;;;;;10.50;9.75;;;;;11.70;53.52;102342.28;5060362;28;45232;-61
2022/03/17 06:55:11;;;;;;;;;9.25;9.00;;;;;11.68;53.18;102344.00;5058768;28;47608;-61
2022/03/17 06:57:38;;;;;;;;;9.25;9.25;;;;;11.68;53.41;102355.44;5060451;28;45209;-61
2022/03/17 07:00:05;;;;;;;;;10.50;9.75;;;;;11.64;53.46;102347.50;5060217;28;45349;-60
2022/03/17 07:02:31;;;;;;;;;8.75;8.75;;;;;11.66;53.21;102357.19;5060451;28;45416;-60
2022/03/17 07:04:56;;;;;;;;;11.75;10.25;;;;;11.61;53.50;102347.47;5060186;28;45907;-59
2022/03/17 07:07:23;;;;;;;;;8.25;8.00;;;;;11.65;53.38;102358.03;5058885;28;45435;-60
2022/03/17 07:09:49;;;;;;;;;8.00;8.00;;;;;11.65;53.19;102373.84;5058746;28;45272;-59
2022/03/17 07:12:14;;;;;;;;;10.00;9.25;;;;;11.65;53.51;102383.50;5060237;28;45530;-60
2022/03/17 07:14:40;;;;;;;;;8.25;8.25;;;;;11.65;52.96;102391.41;5060327;28;45477;-59
2022/03/17 07:17:05;;;;;;;;;9.25;8.00;;;;;11.63;52.83;102404.53;5058556;28;45245;-60
2022/03/17 07:19:31;;;;;;;;;7.25;7.25;;;;;11.62;53.07;102392.25;5059640;28;45225;-60
2022/03/17 07:21:57;;;;;;;;;6.25;6.25;;;;;11.62;53.13;102396.63;5058847;28;45285;-60
2022/03/17 07:24:22;;;;;;;;;6.25;6.25;;;;;11.62;52.92;102405.44;5059801;28;46136;-60
2022/03/17 07:26:47;;;;;;;;;5.00;5.00;;;;;11.62;53.07;102412.44;5060011;28;45264;-60
2022/03/17 07:29:13;;;;;;;;;8.50;8.50;;;;;11.61;52.88;102418.56;5060237;28;45381;-60
2022/03/17 07:31:39;;;;;;;;;9.75;8.00;;;;;11.61;52.82;102413.28;5058715;28;47158;-60
2022/03/17 07:34:04;;;;;;;;;8.50;6.00;;;;;11.61;52.85;102426.47;5059819;28;45395;-60
2022/03/17 07:36:30;;;;;;;;;12.75;10.25;;;;;11.58;52.91;102414.16;5059719;28;45346;-60
2022/03/17 07:38:57;;;;;;;;;4.75;4.75;;;;;11.57;52.77;102436.06;5068686;28;45322;-59
2022/03/17 07:41:24;;;;;;;;;8.25;7.25;;;;;11.61;52.81;102439.63;5058546;28;45189;-60
2022/03/17 07:43:50;;;;;;;;;7.00;5.00;;;;;11.61;52.78;102442.25;5059659;28;45380;-60
2022/03/17 07:46:15;;;;;;;;;7.25;7.25;;;;;11.61;52.81;102442.25;5058639;28;45627;-59
2022/03/17 07:48:41;;;;;;;;;5.75;5.75;;;;;11.62;52.81;102436.13;5058519;28;45265;-59
2022/03/17 07:51:08;;;;;;;;;8.50;7.00;;;;;11.64;52.77;102442.31;5058197;28;45539;-59
2022/03/17 07:53:34;;;;;;;;;6.00;6.00;;;;;11.61;52.52;102445.78;5058282;28;47624;-59
2022/03/17 07:56:02;;;;;;;;;8.75;8.00;;;;;11.65;53.07;102444.94;5059664;28;45405;-59
2022/03/17 07:58:27;;;;;;;;;8.25;7.00;;;;;11.65;52.67;102450.22;5059684;28;45336;-59
2022/03/17 08:00:55;;;;;;;;;6.75;6.75;;;;;11.67;52.88;102452.84;5059787;28;45240;-59
2022/03/17 08:03:21;;;;;;;;;7.00;7.00;;;;;11.66;52.86;102459.88;5059380;28;45672;-59
2022/03/17 08:05:48;;;;;;;;;10.75;8.00;;;;;11.68;52.71;102475.69;5059375;28;45174;-59
2022/03/17 08:08:14;;;;;;;;;7.25;7.00;;;;;11.67;52.61;102480.09;5059407;28;45371;-59
2022/03/17 08:10:40;;;;;;;;;7.75;6.25;;;;;11.69;52.38;102483.59;5059244;28;45445;-60
2022/03/17 08:13:08;;;;;;;;;8.75;8.75;;;;;11.69;52.62;102486.22;5059168;28;45369;-60
2022/03/17 08:15:33;;;;;;;;;7.50;7.50;;;;;11.70;52.70;102480.09;5059554;28;45319;-59
2022/03/17 08:17:59;;;;;;;;;7.50;7.25;;;;;11.68;52.77;102468.69;5059365;28;45657;-60
2022/03/17 08:20:25;;;;;;;;;8.50;8.50;;;;;11.70;52.53;102485.38;5059636;28;45213;-60
2022/03/17 08:22:50;;;;;;;;;9.00;8.25;;;;;11.71;52.60;102495.03;5058906;28;45193;-60
2022/03/17 08:25:17;;;;;;;;;9.50;8.50;;;;;11.70;52.46;102484.50;5059051;28;45362;-60
2022/03/17 08:27:42;;;;;;;;;9.00;7.00;;;;;11.70;52.56;102493.25;5058150;28;45549;-60
2022/03/17 08:30:09;;;;;;;;;10.00;8.50;;;;;11.69;52.66;102495.88;5061719;28;45358;-60
2022/03/17 08:32:34;;;;;;;;;12.75;11.75;;;;;11.74;52.67;102507.34;5061407;28;48117;-60
2022/03/17 08:35:00;;;;;;;;;6.75;6.25;;;;;11.75;52.73;102510.84;5062698;28;45493;-60
2022/03/17 08:37:25;;;;;;;;;10.50;8.00;;;;;11.78;52.53;102513.53;5062411;28;45326;-60
2022/03/17 08:39:51;;;;;;;;;8.25;6.75;;;;;11.80;52.61;102520.56;5070054;28;45385;-60
2022/03/17 08:42:17;;;;;;;;;10.75;7.25;;;;;11.79;52.51;102517.94;5062352;28;46364;-60
2022/03/17 08:44:43;;;;;;;;;11.00;9.75;;;;;11.84;52.69;102529.38;5062709;28;45422;-60
2022/03/17 08:50:00;;;;;;;;;6.00;6.00;;;;;11.89;52.43;102539.97;5046231;28;45401;-60
2022/03/17 08:52:27;;;;;;;;;11.00;8.00;;;;;11.92;52.33;102537.34;5061929;28;46240;-59
2022/03/17 08:54:52;;;;;;;;;8.00;7.00;;;;;11.94;52.25;102546.16;5062294;28;45314;-60
2022/03/17 08:57:18;;;;;;;;;7.00;7.00;;;;;11.96;52.27;102558.53;5061038;28;45301;-60
2022/03/17 08:59:43;;;;;;;;;9.75;8.50;;;;;11.99;52.35;102566.44;5062435;28;45472;-60
2022/03/17 09:02:13;;;;;;;;;11.00;8.75;;;;;12.00;52.50;102569.97;5062164;28;45296;-60
2022/03/17 09:04:38;;;;;;;;;10.00;9.25;;;;;11.99;52.52;102557.66;5062279;28;45344;-60
2022/03/17 09:07:04;;;;;;;;;9.75;9.75;;;;;12.03;52.37;102573.50;5061969;28;45457;-60
2022/03/17 09:09:35;;;;;;;;;9.25;7.75;;;;;12.07;52.33;102570.91;5060733;28;45557;-59
2022/03/17 09:12:05;;;;;;;;;7.00;6.00;;;;;12.10;52.31;102573.53;5061934;28;46204;-60
2022/03/17 09:14:32;;;;;;;;;9.50;8.75;;;;;12.12;52.42;102583.22;5060706;28;45528;-60
2022/03/17 09:16:57;;;;;;;;;8.50;7.25;;;;;12.13;52.23;102577.09;5062078;28;45309;-60
2022/03/17 09:19:22;;;;;;;;;8.00;8.00;;;;;12.17;52.14;102576.25;5061960;28;45322;-59
2022/03/17 09:21:48;;;;;;;;;10.00;8.75;;;;;12.20;52.33;102585.97;5060337;28;45439;-59
2022/03/17 09:24:13;;;;;;;;;11.75;8.00;;;;;12.22;52.24;102583.31;5061782;28;45369;-60
2022/03/17 09:26:39;;;;;;;;;9.50;7.75;;;;;12.25;52.46;102588.59;5061864;28;45801;-60
2022/03/17 09:29:04;;;;;;;;;10.75;9.25;;;;;12.27;52.10;102593.03;5061928;28;45194;-60
2022/03/17 09:31:30;;;;;;;;;9.25;8.50;;;;;12.26;52.16;102585.97;5061755;28;45243;-60
2022/03/17 09:33:56;;;;;;;;;10.25;8.50;;;;;12.30;51.86;102594.78;5061819;28;45234;-60
2022/03/17 09:36:22;;;;;;;;;10.00;8.50;;;;;12.32;52.04;102590.44;5061545;28;45185;-60
2022/03/17 09:39:39;;;;;;;;;11.75;10.50;;;;;12.36;52.10;102597.47;5069862;28;45353;-60
2022/03/17 09:41:35;;;;;;;;;9.00;9.00;;;;;12.39;51.78;102600.16;5049589;28;45570;-60
2022/03/17 09:44:02;;;;;;;;;11.25;8.75;;;;;12.42;51.98;102609.84;5061450;28;45319;-59
2022/03/17 09:46:29;;;;;;;;;8.50;8.50;;;;;12.42;51.61;102608.09;5061485;28;45334;-60
2022/03/17 09:48:55;;;;;;;;;8.75;8.50;;;;;12.45;51.81;102610.75;5061248;28;45470;-60
2022/03/17 09:51:24;;;;;;;;;13.25;10.75;;;;;12.47;51.75;102605.50;5059564;28;46399;-60
2022/03/17 09:53:53;;;;;;;;;8.25;8.25;;;;;12.51;51.83;102616.09;5061291;28;45463;-60
2022/03/17 09:56:23;;;;;;;;;10.75;10.75;;;;;12.55;51.88;102613.47;5060147;28;45248;-60
2022/03/17 09:58:49;;;;;;;;;13.25;11.00;;;;;12.58;51.60;102613.47;5061228;28;45285;-60
2022/03/17 10:01:16;;;;;;;;;12.50;10.00;;;;;12.60;51.66;102612.63;5061046;28;46376;-60
2022/03/17 10:03:42;;;;;;;;;12.50;11.50;;;;;12.64;51.65;102626.69;5043083;28;45323;-60
2022/03/17 10:06:10;;;;;;;;;11.00;9.25;;;;;12.69;51.69;102627.59;5061084;28;45445;-60
2022/03/17 10:08:38;;;;;;;;;9.00;8.25;;;;;12.73;51.34;102632.06;5059733;28;45381;-60
2022/03/17 10:11:03;;;;;;;;;11.25;10.25;;;;;12.76;51.44;102639.97;5059491;28;46983;-60
2022/03/17 10:13:29;;;;;;;;;9.00;7.75;;;;;12.79;51.40;102633.84;5060935;28;45439;-60
2022/03/17 10:16:07;;;;;;;;;10.00;9.50;;;;;12.81;51.75;102642.66;5043115;28;45363;-60
2022/03/17 10:18:37;;;;;;;;;10.25;9.50;;;;;12.84;51.54;102640.03;5061235;28;45268;-60
2022/03/17 10:21:11;;;;;;;;;14.25;12.00;;;;;12.86;51.38;102646.22;5059232;28;46130;-60
2022/03/17 10:24:00;;;;;;;;;11.75;10.75;;;;;12.88;51.27;102639.19;5061089;28;45244;-60
2022/03/17 10:26:28;;;;;;;;;8.00;8.00;;;;;12.90;51.47;102644.47;5060736;28;45316;-60
2022/03/17 10:29:04;;;;;;;;;8.25;8.25;;;;;12.91;51.39;102648.88;5059600;28;46091;-63
2022/03/17 10:31:29;;;;;;;;;14.00;11.75;;;;;12.94;51.31;102654.16;5059301;28;46908;-60
2022/03/17 10:33:55;;;;;;;;;9.00;9.00;;;;;12.97;51.25;102659.47;5060876;28;45312;-60
2022/03/17 10:36:21;;;;;;;;;12.00;11.75;;;;;12.99;51.57;102655.06;5060746;28;45293;-60
2022/03/17 10:38:49;;;;;;;;;14.25;14.00;;;;;13.01;51.12;102667.41;5068913;28;45488;-60
2022/03/17 10:41:15;;;;;;;;;14.75;12.50;;;;;13.05;51.34;102664.81;5060918;28;46035;-60
2022/03/17 10:43:42;;;;;;;;;12.75;10.25;;;;;13.08;51.34;102662.16;5060605;28;45366;-60
2022/03/17 10:46:16;;;;;;;;;19.25;13.25;;;;;13.11;51.26;102662.19;5060710;28;45268;-59
2022/03/17 10:48:58;;;;;;;;;14.75;13.50;;;;;13.13;51.08;102671.91;5060399;28;45512;-59
2022/03/17 10:51:53;;;;;;;;;12.25;11.00;;;;;13.15;51.38;102683.31;5059918;28;45265;-59
2022/03/17 10:54:19;;;;;;;;;13.00;13.00;;;;;13.17;51.23;102678.09;5058818;28;45308;-60
2022/03/17 10:56:57;;;;;;;;;11.00;9.50;;;;;13.19;50.92;102680.72;5060586;28;45367;-59
2022/03/17 10:59:22;;;;;;;;;10.00;9.25;;;;;13.14;51.29;102678.94;5060397;28;45344;-59
2022/03/17 11:01:48;;;;;;;;;15.25;13.75;;;;;13.21;50.79;102681.63;5060311;28;46086;-59
2022/03/17 11:04:13;;;;;;;;;7.25;6.25;;;;;13.20;51.28;102680.72;5060375;28;45247;-59
2022/03/17 11:06:40;;;;;;;;;9.25;8.25;;;;;13.25;50.71;102692.19;5060109;28;45852;-60
2022/03/17 11:09:08;;;;;;;;;13.50;10.25;;;;;13.26;51.20;102693.09;5060089;28;45485;-59
2022/03/17 11:11:34;;;;;;;;;10.00;10.00;;;;;13.27;51.09;102698.38;5059909;28;46954;-59
2022/03/17 11:14:00;;;;;;;;;12.00;12.00;;;;;13.31;51.10;102702.78;5058989;28;45401;-60
2022/03/17 11:16:43;;;;;;;;;16.50;13.00;;;;;13.32;50.72;102698.41;5060096;28;45351;-59
2022/03/17 11:19:12;;;;;;;;;13.50;13.50;;;;;13.35;51.03;102705.47;5060291;28;45297;-60
2022/03/17 11:21:38;;;;;;;;;14.50;14.50;;;;;13.35;51.05;102700.19;5059550;28;45547;-60
2022/03/17 11:24:07;;;;;;;;;13.75;13.00;;;;;13.39;50.66;102704.63;5058487;28;45198;-60